Time;durP1;ratioP1;P1;durP2;ratioP2;P2;SDS_P1;SDS_P2;PMS_P1;PMS_P2;Temp;Humidity;BMP_temperature;BMP_pressure;BME280_temperature;BME280_humidity;BME280_pressure;Samples;Min_cycle;Max_cycle;Signal;HPM_P1;HPM_P2
2023/03/07 00:00:33;;;;;;;;;;;;;;;;;;4950216;28;20278;-77
2023/03/07 00:02:58;;;;;;;;;;;;;;;;;;4940883;28;19918;-77
2023/03/07 00:05:23;;;;;;;;;;;;;;;;;;4946025;28;20246;-77
2023/03/07 00:07:48;;;;;;;;;;;;;;;;;;4941792;28;20378;-77
2023/03/07 00:10:14;;;;;;;;;;;;;;;;;;4927295;28;20433;-76
2023/03/07 00:12:39;;;;;;;;;;;;;;;;;;4957085;28;19918;-77
2023/03/07 00:15:05;;;;;;;;;;;;;;;;;;4947767;28;19949;-77
2023/03/07 00:17:30;;;;;;;;;;;;;;;;;;4961434;28;20362;-76
2023/03/07 00:19:55;;;;;;;;;;;;;;;;;;4942452;28;20024;-77
2023/03/07 00:22:20;;;;;;;;;;;;;;;;;;4950381;28;19973;-77
2023/03/07 00:24:46;;;;;;;;;;;;;;;;;;4934734;28;19914;-77
2023/03/07 00:27:12;;;;;;;;;;;;;;;;;;4950082;28;20413;-76
2023/03/07 00:29:37;;;;;;;;;;;;;;;;;;4935588;28;19918;-77
2023/03/07 00:32:02;;;;;;;;;;;;;;;;;;4935989;28;20286;-77
2023/03/07 00:34:27;;;;;;;;;;;;;;;;;;4949022;28;19922;-77
2023/03/07 00:36:53;;;;;;;;;;;;;;;;;;4919047;28;19930;-77
2023/03/07 00:39:18;;;;;;;;;;;;;;;;;;4963024;28;20008;-76
2023/03/07 00:41:43;;;;;;;;;;;;;;;;;;4942706;28;20027;-77
2023/03/07 00:44:08;;;;;;;;;;;;;;;;;;4954907;28;20378;-77
2023/03/07 00:46:34;;;;;;;;;;;;;;;;;;4930122;29;20370;-77
2023/03/07 00:48:59;;;;;;;;;;;;;;;;;;4930538;28;19918;-77
2023/03/07 00:51:24;;;;;;;;;;;;;;;;;;4944946;28;20397;-76
2023/03/07 00:53:49;;;;;;;;;;;;;;;;;;4932690;28;20433;-77
2023/03/07 00:56:16;;;;;;;;;;;;;;;;;;4932850;28;20009;-76
2023/03/07 00:58:41;;;;;;;;;;;;;;;;;;4947241;28;19914;-77
2023/03/07 01:01:07;;;;;;;;;;;;;;;;;;4947041;28;19969;-77
2023/03/07 01:03:32;;;;;;;;;;;;;;;;;;4947131;28;20266;-76
2023/03/07 01:06:00;;;;;;;;;;;;;;;;;;4917732;28;19922;-77
2023/03/07 01:08:26;;;;;;;;;;;;;;;;;;4966115;28;19934;-76
2023/03/07 01:10:51;;;;;;;;;;;;;;;;;;4942742;28;20374;-76
2023/03/07 01:13:17;;;;;;;;;;;;;;;;;;4939978;28;20006;-77
2023/03/07 01:15:43;;;;;;;;;;;;;;;;;;4942943;28;20971;-77
2023/03/07 01:18:08;;;;;;;;;;;;;;;;;;4949189;28;20033;-77
2023/03/07 01:20:34;;;;;;;;;;;;;;;;;;4949454;28;19914;-77
2023/03/07 01:22:59;;;;;;;;;;;;;;;;;;4914179;29;19918;-77
2023/03/07 01:25:25;;;;;;;;;;;;;;;;;;4918568;28;19914;-77
2023/03/07 01:27:50;;;;;;;;;;;;;;;;;;4947704;28;19918;-77
2023/03/07 01:30:16;;;;;;;;;;;;;;;;;;4938800;28;20267;-78
2023/03/07 01:32:41;;;;;;;;;;;;;;;;;;4949516;28;19918;-77
2023/03/07 01:35:06;;;;;;;;;;;;;;;;;;4936200;28;19918;-77
2023/03/07 01:37:32;;;;;;;;;;;;;;;;;;4949063;28;19914;-77
2023/03/07 01:39:57;;;;;;;;;;;;;;;;;;4934419;28;19918;-76
2023/03/07 01:42:22;;;;;;;;;;;;;;;;;;4919063;28;19918;-77
2023/03/07 01:44:58;;;;;;;;;;;;;;;;;;4931992;28;19925;-77
2023/03/07 01:47:23;;;;;;;;;;;;;;;;;;4939544;28;19973;-77
2023/03/07 01:49:48;;;;;;;;;;;;;;;;;;4960751;28;19919;-77
2023/03/07 01:52:18;;;;;;;;;;;;;;;;;;4945396;28;19918;-77
2023/03/07 01:54:47;;;;;;;;;;;;;;;;;;4942284;28;20382;-77
2023/03/07 01:57:13;;;;;;;;;;;;;;;;;;4933078;28;19926;-77
2023/03/07 01:59:39;;;;;;;;;;;;;;;;;;4918780;28;20380;-76
2023/03/07 02:02:06;;;;;;;;;;;;;;;;;;4939198;28;19957;-78
2023/03/07 02:04:51;;;;;;;;;;;;;;;;;;4947134;28;20000;-77
2023/03/07 02:07:17;;;;;;;;;;;;;;;;;;4933913;28;19927;-77
2023/03/07 02:09:42;;;;;;;;;;;;;;;;;;4934870;28;20283;-77
2023/03/07 02:12:07;;;;;;;;;;;;;;;;;;4960365;28;20286;-77
2023/03/07 02:14:33;;;;;;;;;;;;;;;;;;4946575;28;19929;-76
2023/03/07 02:16:58;;;;;;;;;;;;;;;;;;4940303;28;20298;-77
2023/03/07 02:19:29;;;;;;;;;;;;;;;;;;4933959;29;21354;-77
2023/03/07 02:21:54;;;;;;;;;;;;;;;;;;4946522;28;19922;-77
2023/03/07 02:24:42;;;;;;;;;;;;;;;;;;4946182;28;19925;-77
2023/03/07 02:27:08;;;;;;;;;;;;;;;;;;4950702;28;20311;-77
2023/03/07 02:29:33;;;;;;;;;;;;;;;;;;4946457;28;19961;-77
2023/03/07 02:31:58;;;;;;;;;;;;;;;;;;4941993;28;19958;-77
2023/03/07 02:34:25;;;;;;;;;;;;;;;;;;4944602;28;20367;-77
2023/03/07 02:37:10;;;;;;;;;;;;;;;;;;4948512;28;19973;-77
2023/03/07 02:39:35;;;;;;;;;;;;;;;;;;4944452;28;19918;-78
2023/03/07 02:42:02;;;;;;;;;;;;;;;;;;4949369;28;19914;-77
2023/03/07 02:44:28;;;;;;;;;;;;;;;;;;4942907;28;19918;-77
2023/03/07 02:46:53;;;;;;;;;;;;;;;;;;4919030;28;20317;-77
2023/03/07 02:49:18;;;;;;;;;;;;;;;;;;4959577;28;19923;-76
2023/03/07 02:51:43;;;;;;;;;;;;;;;;;;4956167;28;19970;-77
2023/03/07 02:54:09;;;;;;;;;;;;;;;;;;4922762;28;20006;-77
2023/03/07 02:56:34;;;;;;;;;;;;;;;;;;4937961;28;19930;-77
2023/03/07 02:58:59;;;;;;;;;;;;;;;;;;4938686;28;19929;-77
2023/03/07 03:01:25;;;;;;;;;;;;;;;;;;4923132;28;20188;-77
2023/03/07 03:03:50;;;;;;;;;;;;;;;;;;4946908;28;19918;-76
2023/03/07 03:06:15;;;;;;;;;;;;;;;;;;4943932;28;19922;-76
2023/03/07 03:08:41;;;;;;;;;;;;;;;;;;4928235;28;20390;-78
2023/03/07 03:11:06;;;;;;;;;;;;;;;;;;4949245;28;19918;-76
2023/03/07 03:13:31;;;;;;;;;;;;;;;;;;4929853;29;19921;-76
2023/03/07 03:15:56;;;;;;;;;;;;;;;;;;4950078;28;19923;-77
2023/03/07 03:18:31;;;;;;;;;;;;;;;;;;4932795;28;19966;-77
2023/03/07 03:20:56;;;;;;;;;;;;;;;;;;4934088;28;20017;-77
2023/03/07 03:23:21;;;;;;;;;;;;;;;;;;4957391;28;20037;-77
2023/03/07 03:25:56;;;;;;;;;;;;;;;;;;4935006;28;19973;-77
2023/03/07 03:28:21;;;;;;;;;;;;;;;;;;4953747;28;19965;-77
2023/03/07 03:30:55;;;;;;;;;;;;;;;;;;4957024;28;19922;-77
2023/03/07 03:33:20;;;;;;;;;;;;;;;;;;4955574;28;19914;-76
2023/03/07 03:35:45;;;;;;;;;;;;;;;;;;4945399;28;20421;-77
2023/03/07 03:38:11;;;;;;;;;;;;;;;;;;4954461;28;20254;-77
2023/03/07 03:40:37;;;;;;;;;;;;;;;;;;4963967;28;20007;-77
2023/03/07 03:43:02;;;;;;;;;;;;;;;;;;4936220;28;20369;-77
2023/03/07 03:45:27;;;;;;;;;;;;;;;;;;4951014;28;20378;-77
2023/03/07 03:47:52;;;;;;;;;;;;;;;;;;4948754;28;19922;-78
2023/03/07 03:50:18;;;;;;;;;;;;;;;;;;4936563;28;19925;-78
2023/03/07 03:52:43;;;;;;;;;;;;;;;;;;4942012;28;19937;-78
2023/03/07 03:55:09;;;;;;;;;;;;;;;;;;4947941;28;19918;-78
2023/03/07 03:57:34;;;;;;;;;;;;;;;;;;4936227;28;20001;-78
2023/03/07 03:59:59;;;;;;;;;;;;;;;;;;4949000;28;19941;-79
2023/03/07 04:02:25;;;;;;;;;;;;;;;;;;4946452;28;19918;-78
2023/03/07 04:04:51;;;;;;;;;;;;;;;;;;4939462;28;19915;-78
2023/03/07 04:07:16;;;;;;;;;;;;;;;;;;4939316;28;19922;-79
2023/03/07 04:09:42;;;;;;;;;;;;;;;;;;4947468;28;20346;-78
2023/03/07 04:12:07;;;;;;;;;;;;;;;;;;4936788;28;20054;-78
2023/03/07 04:14:32;;;;;;;;;;;;;;;;;;4945502;28;19919;-78
2023/03/07 04:16:58;;;;;;;;;;;;;;;;;;4949453;28;20386;-79
2023/03/07 04:19:23;;;;;;;;;;;;;;;;;;4940920;28;19929;-80
2023/03/07 04:21:51;;;;;;;;;;;;;;;;;;4948071;28;19922;-79
2023/03/07 04:24:16;;;;;;;;;;;;;;;;;;4948188;28;19920;-80
2023/03/07 04:26:41;;;;;;;;;;;;;;;;;;4943700;28;19926;-79
2023/03/07 04:29:06;;;;;;;;;;;;;;;;;;4962474;28;20025;-80
2023/03/07 04:31:32;;;;;;;;;;;;;;;;;;4946497;28;19958;-79
2023/03/07 04:33:57;;;;;;;;;;;;;;;;;;4935686;28;19922;-79
2023/03/07 04:36:23;;;;;;;;;;;;;;;;;;4944802;28;19922;-79
2023/03/07 04:38:48;;;;;;;;;;;;;;;;;;4951284;28;19980;-79
2023/03/07 04:41:14;;;;;;;;;;;;;;;;;;4938502;28;19925;-79
2023/03/07 04:43:39;;;;;;;;;;;;;;;;;;4938395;28;19918;-79
2023/03/07 04:46:05;;;;;;;;;;;;;;;;;;4946743;28;20563;-80
2023/03/07 04:48:30;;;;;;;;;;;;;;;;;;4927789;29;19923;-79
2023/03/07 04:50:55;;;;;;;;;;;;;;;;;;4942837;28;20367;-79
2023/03/07 04:53:21;;;;;;;;;;;;;;;;;;4949113;28;19918;-78
2023/03/07 04:55:46;;;;;;;;;;;;;;;;;;4957814;28;19922;-79
2023/03/07 04:58:12;;;;;;;;;;;;;;;;;;4935902;28;20390;-79
2023/03/07 05:00:44;;;;;;;;;;;;;;;;;;4927526;28;19925;-79
2023/03/07 05:03:10;;;;;;;;;;;;;;;;;;4941313;28;19914;-79
2023/03/07 05:05:35;;;;;;;;;;;;;;;;;;4957504;28;20342;-79
2023/03/07 05:08:01;;;;;;;;;;;;;;;;;;4921762;29;19926;-80
2023/03/07 05:10:26;;;;;;;;;;;;;;;;;;4963366;28;19914;-79
2023/03/07 05:12:51;;;;;;;;;;;;;;;;;;4934044;28;19958;-79
2023/03/07 05:15:16;;;;;;;;;;;;;;;;;;4938963;28;19970;-79
2023/03/07 05:17:44;;;;;;;;;;;;;;;;;;4936223;28;19950;-79
2023/03/07 05:20:10;;;;;;;;;;;;;;;;;;4949582;28;19968;-80
2023/03/07 05:22:35;;;;;;;;;;;;;;;;;;4944494;28;19918;-78
2023/03/07 05:25:01;;;;;;;;;;;;;;;;;;4948146;28;20428;-78
2023/03/07 05:27:26;;;;;;;;;;;;;;;;;;4953635;28;19918;-82
2023/03/07 05:29:51;;;;;;;;;;;;;;;;;;4946961;28;19986;-82
2023/03/07 05:32:16;;;;;;;;;;;;;;;;;;4964902;28;19922;-82
2023/03/07 05:34:43;;;;;;;;;;;;;;;;;;4945392;28;19921;-83
2023/03/07 05:37:08;;;;;;;;;;;;;;;;;;4939438;28;19918;-82
2023/03/07 05:39:34;;;;;;;;;;;;;;;;;;4947649;28;20370;-83
2023/03/07 05:41:59;;;;;;;;;;;;;;;;;;4933938;28;19929;-84
2023/03/07 05:44:24;;;;;;;;;;;;;;;;;;4948243;28;20479;-83
2023/03/07 05:46:49;;;;;;;;;;;;;;;;;;4953770;28;20368;-83
2023/03/07 05:49:15;;;;;;;;;;;;;;;;;;4932730;28;19918;-84
2023/03/07 05:51:40;;;;;;;;;;;;;;;;;;4933716;28;20373;-83
2023/03/07 05:54:05;;;;;;;;;;;;;;;;;;4949475;28;20382;-82
2023/03/07 05:56:31;;;;;;;;;;;;;;;;;;4941971;28;20334;-84
2023/03/07 05:58:56;;;;;;;;;;;;;;;;;;4935069;28;20582;-85
2023/03/07 06:01:21;;;;;;;;;;;;;;;;;;4953968;28;19918;-86
2023/03/07 06:03:47;;;;;;;;;;;;;;;;;;4947439;28;19927;-86
2023/03/07 06:06:12;;;;;;;;;;;;;;;;;;4948608;28;19950;-88
2023/03/07 06:08:37;;;;;;;;;;;;;;;;;;4921828;28;19926;-86
2023/03/07 06:11:03;;;;;;;;;;;;;;;;;;4966215;28;19918;-86
2023/03/07 06:13:29;;;;;;;;;;;;;;;;;;4960371;28;20337;-87
2023/03/07 06:15:55;;;;;;;;;;;;;;;;;;4925081;28;19938;-87
2023/03/07 06:18:20;;;;;;;;;;;;;;;;;;4937167;28;19921;-87
2023/03/07 06:21:01;;;;;;;;;;;;;;;;;;4946228;28;19918;-88
2023/03/07 06:23:28;;;;;;;;;;;;;;;;;;4937414;28;19922;-88
2023/03/07 06:25:53;;;;;;;;;;;;;;;;;;4946381;28;20388;-88
2023/03/07 06:28:18;;;;;;;;;;;;;;;;;;4947625;28;19958;-88
2023/03/07 06:30:44;;;;;;;;;;;;;;;;;;4947421;28;19970;-89
2023/03/07 06:33:09;;;;;;;;;;;;;;;;;;4938091;28;19982;-88
2023/03/07 06:35:37;;;;;;;;;;;;;;;;;;4952193;28;19929;-88
2023/03/07 06:38:02;;;;;;;;;;;;;;;;;;4964996;28;20801;-88
2023/03/07 06:40:27;;;;;;;;;;;;;;;;;;4946572;28;19929;-87
2023/03/07 06:42:53;;;;;;;;;;;;;;;;;;4936083;28;19964;-88
2023/03/07 06:45:18;;;;;;;;;;;;;;;;;;4940151;28;19918;-89
2023/03/07 06:47:43;;;;;;;;;;;;;;;;;;4949294;28;19910;-87
2023/03/07 06:50:08;;;;;;;;;;;;;;;;;;4947896;28;19915;-87
2023/03/07 06:52:34;;;;;;;;;;;;;;;;;;4941195;28;19911;-87
2023/03/07 06:55:00;;;;;;;;;;;;;;;;;;4944329;28;19918;-86
2023/03/07 06:57:25;;;;;;;;;;;;;;;;;;4947828;28;19927;-87
2023/03/07 06:59:50;;;;;;;;;;;;;;;;;;4937144;28;19926;-87
2023/03/07 07:02:15;;;;;;;;;;;;;;;;;;4936731;28;19918;-86
2023/03/07 07:04:41;;;;;;;;;;;;;;;;;;4932759;28;19989;-86
2023/03/07 07:07:06;;;;;;;;;;;;;;;;;;4939728;28;19958;-86
2023/03/07 07:09:32;;;;;;;;;;;;;;;;;;4951757;28;19914;-87
2023/03/07 07:11:57;;;;;;;;;;;;;;;;;;4957025;28;19918;-88
2023/03/07 07:14:23;;;;;;;;;;;;;;;;;;4938025;28;19930;-86
2023/03/07 07:16:48;;;;;;;;;;;;;;;;;;4942755;28;19926;-86
2023/03/07 07:19:13;;;;;;;;;;;;;;;;;;4949464;28;20005;-85
2023/03/07 07:21:39;;;;;;;;;;;;;;;;;;4953609;28;19925;-85
2023/03/07 07:24:04;;;;;;;;;;;;;;;;;;4960704;28;19937;-86
2023/03/07 07:26:29;;;;;;;;;;;;;;;;;;4954653;28;19923;-83
2023/03/07 07:28:54;;;;;;;;;;;;;;;;;;4940076;28;19929;-85
2023/03/07 07:31:20;;;;;;;;;;;;;;;;;;4956918;28;19918;-87
2023/03/07 07:33:45;;;;;;;;;;;;;;;;;;4925353;28;19918;-86
2023/03/07 07:36:10;;;;;;;;;;;;;;;;;;4950059;28;19919;-84
2023/03/07 07:38:36;;;;;;;;;;;;;;;;;;4949400;28;19918;-84
2023/03/07 07:41:01;;;;;;;;;;;;;;;;;;4965767;28;19950;-87
2023/03/07 07:43:26;;;;;;;;;;;;;;;;;;4937693;28;20337;-85
2023/03/07 07:45:52;;;;;;;;;;;;;;;;;;4943621;28;19969;-86
2023/03/07 07:48:17;;;;;;;;;;;;;;;;;;4940145;28;19914;-85
2023/03/07 07:50:42;;;;;;;;;;;;;;;;;;4937539;28;19925;-85
2023/03/07 07:53:07;;;;;;;;;;;;;;;;;;4936972;28;20382;-86
2023/03/07 07:55:33;;;;;;;;;;;;;;;;;;4947285;28;20057;-85
2023/03/07 07:57:58;;;;;;;;;;;;;;;;;;4952404;28;19921;-86
2023/03/07 08:00:23;;;;;;;;;;;;;;;;;;4938093;28;20378;-84
2023/03/07 08:02:49;;;;;;;;;;;;;;;;;;4935968;28;19945;-85
2023/03/07 08:05:15;;;;;;;;;;;;;;;;;;4935980;28;19997;-85
2023/03/07 08:07:40;;;;;;;;;;;;;;;;;;4953417;28;19938;-85
2023/03/07 08:10:06;;;;;;;;;;;;;;;;;;4952732;28;19929;-82
2023/03/07 08:12:31;;;;;;;;;;;;;;;;;;4937712;28;19922;-84
2023/03/07 08:14:56;;;;;;;;;;;;;;;;;;4954786;28;19922;-86
2023/03/07 08:17:21;;;;;;;;;;;;;;;;;;4953718;28;20050;-85
2023/03/07 08:19:47;;;;;;;;;;;;;;;;;;4949740;28;19915;-86
2023/03/07 08:22:12;;;;;;;;;;;;;;;;;;4940310;28;19918;-86
2023/03/07 08:24:37;;;;;;;;;;;;;;;;;;4937830;28;19986;-86
2023/03/07 08:27:02;;;;;;;;;;;;;;;;;;4925550;28;19961;-84
2023/03/07 08:29:28;;;;;;;;;;;;;;;;;;4926526;28;19922;-85
2023/03/07 08:31:53;;;;;;;;;;;;;;;;;;4957343;28;19925;-85
2023/03/07 08:34:19;;;;;;;;;;;;;;;;;;4948806;28;19922;-84
2023/03/07 08:36:44;;;;;;;;;;;;;;;;;;4963416;28;19986;-85
2023/03/07 08:39:10;;;;;;;;;;;;;;;;;;4962397;28;20001;-85
2023/03/07 08:41:36;;;;;;;;;;;;;;;;;;4952046;28;20377;-83
2023/03/07 08:44:01;;;;;;;;;;;;;;;;;;4942735;28;19926;-84
2023/03/07 08:46:26;;;;;;;;;;;;;;;;;;4967030;28;19918;-84
2023/03/07 08:48:52;;;;;;;;;;;;;;;;;;4947733;28;19918;-85
2023/03/07 08:51:17;;;;;;;;;;;;;;;;;;4950675;28;20016;-85
2023/03/07 08:53:43;;;;;;;;;;;;;;;;;;4951888;28;20331;-85
2023/03/07 08:56:09;;;;;;;;;;;;;;;;;;4926879;28;19925;-86
2023/03/07 08:58:34;;;;;;;;;;;;;;;;;;4961536;28;19925;-85
2023/03/07 09:01:00;;;;;;;;;;;;;;;;;;4949004;28;19918;-86
2023/03/07 09:03:25;;;;;;;;;;;;;;;;;;4941725;28;20263;-85
2023/03/07 09:05:51;;;;;;;;;;;;;;;;;;4968581;28;19918;-85
2023/03/07 09:08:16;;;;;;;;;;;;;;;;;;4944875;28;20290;-85
2023/03/07 09:10:41;;;;;;;;;;;;;;;;;;4965256;28;19925;-84
2023/03/07 09:13:07;;;;;;;;;;;;;;;;;;4947762;28;19922;-84
2023/03/07 09:15:32;;;;;;;;;;;;;;;;;;4940229;28;19922;-84
2023/03/07 09:17:57;;;;;;;;;;;;;;;;;;4950106;28;19918;-86
2023/03/07 09:20:23;;;;;;;;;;;;;;;;;;4928064;28;19918;-86
2023/03/07 09:22:50;;;;;;;;;;;;;;;;;;4918718;28;20254;-87
2023/03/07 09:25:16;;;;;;;;;;;;;;;;;;4942189;28;19918;-86
2023/03/07 09:27:44;;;;;;;;;;;;;;;;;;4945946;28;19921;-83
2023/03/07 09:30:12;;;;;;;;;;;;;;;;;;4951180;28;19914;-85
2023/03/07 09:32:37;;;;;;;;;;;;;;;;;;4922824;28;19918;-84
2023/03/07 09:35:02;;;;;;;;;;;;;;;;;;4934843;28;19969;-85
2023/03/07 09:37:28;;;;;;;;;;;;;;;;;;4918210;28;19928;-86
2023/03/07 09:39:53;;;;;;;;;;;;;;;;;;4954531;28;19925;-85
2023/03/07 09:42:27;;;;;;;;;;;;;;;;;;4947565;28;19922;-85
2023/03/07 09:45:07;;;;;;;;;;;;;;;;;;4938423;28;19918;-85
2023/03/07 09:47:53;;;;;;;;;;;;;;;;;;4970013;28;19918;-85
2023/03/07 09:50:21;;;;;;;;;;;;;;;;;;4953629;28;19921;-84
2023/03/07 09:52:47;;;;;;;;;;;;;;;;;;4932939;28;19918;-86
2023/03/07 09:55:16;;;;;;;;;;;;;;;;;;4943201;28;19921;-85
2023/03/07 09:57:46;;;;;;;;;;;;;;;;;;4959376;28;20319;-84
2023/03/07 10:00:30;;;;;;;;;;;;;;;;;;4950857;28;20371;-84
2023/03/07 10:02:58;;;;;;;;;;;;;;;;;;4948656;28;19949;-85
2023/03/07 10:05:42;;;;;;;;;;;;;;;;;;4950799;28;20009;-85
2023/03/07 10:08:12;;;;;;;;;;;;;;;;;;4939366;28;20060;-85
2023/03/07 10:10:47;;;;;;;;;;;;;;;;;;4949894;28;19918;-85
2023/03/07 10:13:16;;;;;;;;;;;;;;;;;;4960410;28;20075;-84
2023/03/07 10:15:50;;;;;;;;;;;;;;;;;;4926333;28;20345;-84
2023/03/07 10:18:21;;;;;;;;;;;;;;;;;;4945332;28;19919;-85
2023/03/07 10:20:49;;;;;;;;;;;;;;;;;;4962191;28;19949;-84
2023/03/07 10:23:24;;;;;;;;;;;;;;;;;;4946058;28;19918;-85
2023/03/07 10:25:52;;;;;;;;;;;;;;;;;;4948976;28;19922;-84
2023/03/07 10:28:23;;;;;;;;;;;;;;;;;;4933159;28;19929;-85
2023/03/07 10:30:53;;;;;;;;;;;;;;;;;;4931932;28;20363;-84
2023/03/07 10:33:18;;;;;;;;;;;;;;;;;;4931338;28;19914;-84
2023/03/07 10:35:45;;;;;;;;;;;;;;;;;;4931237;28;19973;-84
2023/03/07 10:38:19;;;;;;;;;;;;;;;;;;4948685;28;20478;-83
2023/03/07 10:40:52;;;;;;;;;;;;;;;;;;4945613;28;20016;-84
2023/03/07 10:43:28;;;;;;;;;;;;;;;;;;4916828;28;19918;-84
2023/03/07 10:46:00;;;;;;;;;;;;;;;;;;4946039;28;19918;-84
2023/03/07 10:48:25;;;;;;;;;;;;;;;;;;4936417;28;19925;-85
2023/03/07 10:50:56;;;;;;;;;;;;;;;;;;4949291;28;19914;-85
2023/03/07 10:53:25;;;;;;;;;;;;;;;;;;4956570;28;19918;-84
2023/03/07 10:55:51;;;;;;;;;;;;;;;;;;4956246;28;19922;-80
2023/03/07 10:58:21;;;;;;;;;;;;;;;;;;4957364;28;20405;-83
2023/03/07 11:00:55;;;;;;;;;;;;;;;;;;4958334;28;19914;-85
2023/03/07 11:03:21;;;;;;;;;;;;;;;;;;4961573;28;19918;-84
2023/03/07 11:05:47;;;;;;;;;;;;;;;;;;4947767;28;20263;-82
2023/03/07 11:08:31;;;;;;;;;;;;;;;;;;4930448;28;19930;-82
2023/03/07 11:10:57;;;;;;;;;;;;;;;;;;4936946;28;19923;-83
2023/03/07 11:13:23;;;;;;;;;;;;;;;;;;4961136;28;19914;-83
2023/03/07 11:15:48;;;;;;;;;;;;;;;;;;4946395;28;19922;-84
2023/03/07 11:18:26;;;;;;;;;;;;;;;;;;4945979;28;19918;-83
2023/03/07 11:20:52;;;;;;;;;;;;;;;;;;4928865;28;19960;-83
2023/03/07 11:23:23;;;;;;;;;;;;;;;;;;4933890;28;20335;-83
2023/03/07 11:25:49;;;;;;;;;;;;;;;;;;4946466;28;19946;-83
2023/03/07 11:28:28;;;;;;;;;;;;;;;;;;4960280;28;20386;-81
2023/03/07 11:30:59;;;;;;;;;;;;;;;;;;4949390;28;19965;-84
2023/03/07 11:33:25;;;;;;;;;;;;;;;;;;4949150;28;20255;-83
2023/03/07 11:35:56;;;;;;;;;;;;;;;;;;4946688;28;19922;-83
2023/03/07 11:38:34;;;;;;;;;;;;;;;;;;4961157;28;19922;-82
2023/03/07 11:41:08;;;;;;;;;;;;;;;;;;4946806;28;19919;-83
2023/03/07 11:43:49;;;;;;;;;;;;;;;;;;4933179;28;20339;-82
2023/03/07 11:46:17;;;;;;;;;;;;;;;;;;4943832;28;19925;-82
2023/03/07 11:48:42;;;;;;;;;;;;;;;;;;4950016;28;20415;-81
2023/03/07 11:51:19;;;;;;;;;;;;;;;;;;4950314;28;20386;-81
2023/03/07 11:53:47;;;;;;;;;;;;;;;;;;4949766;28;20672;-81
2023/03/07 11:56:12;;;;;;;;;;;;;;;;;;4941373;28;19922;-81
2023/03/07 11:58:48;;;;;;;;;;;;;;;;;;4948037;28;20420;-81
2023/03/07 12:01:20;;;;;;;;;;;;;;;;;;4948552;28;19921;-82
2023/03/07 12:04:03;;;;;;;;;;;;;;;;;;4944648;28;19918;-82
2023/03/07 12:06:31;;;;;;;;;;;;;;;;;;4955514;28;19918;-82
2023/03/07 12:09:15;;;;;;;;;;;;;;;;;;4937648;28;19926;-82
2023/03/07 12:11:58;;;;;;;;;;;;;;;;;;4950868;28;19918;-81
2023/03/07 12:14:59;;;;;;;;;;;;;;;;;;4952842;28;19918;-82
2023/03/07 12:18:03;;;;;;;;;;;;;;;;;;4912726;28;20017;-82
2023/03/07 12:20:31;;;;;;;;;;;;;;;;;;4880333;29;19924;-81
2023/03/07 12:23:03;;;;;;;;;;;;;;;;;;4868915;29;20304;-82
2023/03/07 12:25:47;;;;;;;;;;;;;;;;;;4913350;28;20382;-82
2023/03/07 12:28:14;;;;;;;;;;;;;;;;;;4962738;28;19918;-82
2023/03/07 12:30:45;;;;;;;;;;;;;;;;;;4962569;28;20341;-82
2023/03/07 12:33:16;;;;;;;;;;;;;;;;;;4963145;28;20013;-82
2023/03/07 12:35:42;;;;;;;;;;;;;;;;;;4948635;28;20366;-81
2023/03/07 12:38:18;;;;;;;;;;;;;;;;;;4956812;28;19918;-80
2023/03/07 12:40:44;;;;;;;;;;;;;;;;;;4940291;28;19953;-82
2023/03/07 12:43:09;;;;;;;;;;;;;;;;;;4959734;28;19918;-82
2023/03/07 12:45:40;;;;;;;;;;;;;;;;;;4948539;28;19918;-82
2023/03/07 12:48:07;;;;;;;;;;;;;;;;;;4937692;28;20381;-82
2023/03/07 12:50:38;;;;;;;;;;;;;;;;;;4950852;28;19918;-82
2023/03/07 12:53:03;;;;;;;;;;;;;;;;;;4956576;28;19914;-82
2023/03/07 12:55:28;;;;;;;;;;;;;;;;;;4955645;28;20279;-82
2023/03/07 12:57:56;;;;;;;;;;;;;;;;;;4958360;28;20370;-82
2023/03/07 13:00:22;;;;;;;;;;;;;;;;;;4949780;28;20318;-82
2023/03/07 13:02:59;;;;;;;;;;;;;;;;;;4930842;28;19925;-82
2023/03/07 13:05:25;;;;;;;;;;;;;;;;;;4948805;28;19914;-81
2023/03/07 13:07:51;;;;;;;;;;;;;;;;;;4921704;28;19950;-82
2023/03/07 13:10:17;;;;;;;;;;;;;;;;;;4936212;28;20322;-82
2023/03/07 13:12:43;;;;;;;;;;;;;;;;;;4933746;28;20393;-81
2023/03/07 13:15:17;;;;;;;;;;;;;;;;;;4946354;28;19918;-81
2023/03/07 13:17:42;;;;;;;;;;;;;;;;;;4939134;28;19922;-81
2023/03/07 13:20:18;;;;;;;;;;;;;;;;;;4937208;28;19927;-82
2023/03/07 13:22:43;;;;;;;;;;;;;;;;;;4950502;28;19968;-81
2023/03/07 13:25:21;;;;;;;;;;;;;;;;;;4954110;28;20002;-82
2023/03/07 13:27:47;;;;;;;;;;;;;;;;;;4950670;28;19995;-81
2023/03/07 13:30:17;;;;;;;;;;;;;;;;;;4940572;28;19926;-85
2023/03/07 13:32:51;;;;;;;;;;;;;;;;;;4963139;28;19918;-84
2023/03/07 13:35:36;;;;;;;;;;;;;;;;;;4954522;28;20385;-84
2023/03/07 13:38:14;;;;;;;;;;;;;;;;;;4961385;28;20363;-83
2023/03/07 13:40:48;;;;;;;;;;;;;;;;;;4959933;28;19949;-83
2023/03/07 13:43:22;;;;;;;;;;;;;;;;;;4950031;28;20294;-84
2023/03/07 13:45:47;;;;;;;;;;;;;;;;;;4949965;28;19969;-84
2023/03/07 13:48:34;;;;;;;;;;;;;;;;;;4947945;28;19922;-84
2023/03/07 13:51:00;;;;;;;;;;;;;;;;;;4958508;28;20346;-83
2023/03/07 13:53:44;;;;;;;;;;;;;;;;;;4943297;28;19954;-85
2023/03/07 13:56:15;;;;;;;;;;;;;;;;;;4948090;28;20366;-83
2023/03/07 13:58:55;;;;;;;;;;;;;;;;;;4962867;28;19921;-84
2023/03/07 14:01:27;;;;;;;;;;;;;;;;;;4964569;28;19922;-83
2023/03/07 14:04:03;;;;;;;;;;;;;;;;;;4937694;28;19918;-84
2023/03/07 14:06:31;;;;;;;;;;;;;;;;;;4935974;28;19923;-83
2023/03/07 14:08:57;;;;;;;;;;;;;;;;;;4956190;28;19926;-84
2023/03/07 14:11:22;;;;;;;;;;;;;;;;;;4947495;28;19924;-85
2023/03/07 14:13:57;;;;;;;;;;;;;;;;;;4950890;28;19923;-85
2023/03/07 14:16:46;;;;;;;;;;;;;;;;;;4931617;28;19937;-87
2023/03/07 14:19:14;;;;;;;;;;;;;;;;;;4953101;28;19918;-86
2023/03/07 14:21:45;;;;;;;;;;;;;;;;;;4941271;28;19918;-86
2023/03/07 14:24:29;;;;;;;;;;;;;;;;;;4934946;28;19937;-85
2023/03/07 14:26:58;;;;;;;;;;;;;;;;;;4935857;28;19949;-85
2023/03/07 14:29:24;;;;;;;;;;;;;;;;;;4964658;28;19921;-87
2023/03/07 14:31:52;;;;;;;;;;;;;;;;;;4950698;28;19918;-86
2023/03/07 14:34:19;;;;;;;;;;;;;;;;;;4951799;28;19918;-86
2023/03/07 14:36:46;;;;;;;;;;;;;;;;;;4951445;28;19922;-86
2023/03/07 14:39:12;;;;;;;;;;;;;;;;;;4941319;28;19945;-85
2023/03/07 14:41:46;;;;;;;;;;;;;;;;;;4945763;28;19922;-85
2023/03/07 14:44:17;;;;;;;;;;;;;;;;;;4942981;28;19984;-86
2023/03/07 14:47:01;;;;;;;;;;;;;;;;;;4952526;28;20057;-86
2023/03/07 14:49:38;;;;;;;;;;;;;;;;;;4943156;28;19919;-86
2023/03/07 14:52:03;;;;;;;;;;;;;;;;;;4950599;28;19925;-86
2023/03/07 14:54:32;;;;;;;;;;;;;;;;;;4944932;28;19922;-86
2023/03/07 14:56:57;;;;;;;;;;;;;;;;;;4950227;28;19977;-86
2023/03/07 14:59:22;;;;;;;;;;;;;;;;;;4925084;28;20330;-85
2023/03/07 15:01:48;;;;;;;;;;;;;;;;;;4922687;28;20061;-86
2023/03/07 15:04:24;;;;;;;;;;;;;;;;;;4925576;28;20263;-85
2023/03/07 15:06:53;;;;;;;;;;;;;;;;;;4920102;28;19933;-86
2023/03/07 15:09:18;;;;;;;;;;;;;;;;;;4946389;28;20466;-86
2023/03/07 15:11:45;;;;;;;;;;;;;;;;;;4932363;28;19945;-85
2023/03/07 15:14:14;;;;;;;;;;;;;;;;;;4926255;28;19919;-86
2023/03/07 15:16:46;;;;;;;;;;;;;;;;;;4929481;28;19919;-87
2023/03/07 15:19:14;;;;;;;;;;;;;;;;;;4949000;28;19925;-86
2023/03/07 15:21:43;;;;;;;;;;;;;;;;;;4952101;28;19918;-90
2023/03/07 15:24:18;;;;;;;;;;;;;;;;;;4934895;28;19918;-86
2023/03/07 15:26:50;;;;;;;;;;;;;;;;;;4935430;28;20453;-87
2023/03/07 15:29:15;;;;;;;;;;;;;;;;;;4937783;28;19957;-90
2023/03/07 15:31:47;;;;;;;;;;;;;;;;;;4943083;28;19962;-89
2023/03/07 15:34:22;;;;;;;;;;;;;;;;;;4950480;28;20386;-88
2023/03/07 15:36:47;;;;;;;;;;;;;;;;;;4951266;28;19923;-89
2023/03/07 15:39:24;;;;;;;;;;;;;;;;;;4960143;28;19938;-90
2023/03/07 15:42:05;;;;;;;;;;;;;;;;;;4949257;28;19918;-91
2023/03/07 15:44:31;;;;;;;;;;;;;;;;;;4971567;28;19918;-88
2023/03/07 15:46:57;;;;;;;;;;;;;;;;;;4939038;28;19966;-89
2023/03/07 15:49:24;;;;;;;;;;;;;;;;;;4933975;28;20256;-91
2023/03/07 15:51:53;;;;;;;;;;;;;;;;;;4946207;28;19965;-90
2023/03/07 15:54:29;;;;;;;;;;;;;;;;;;4935952;28;19919;-89
2023/03/07 15:56:55;;;;;;;;;;;;;;;;;;4937724;28;19982;-89
2023/03/07 15:59:24;;;;;;;;;;;;;;;;;;4951897;28;19981;-88
2023/03/07 16:01:49;;;;;;;;;;;;;;;;;;4933987;28;19918;-87
2023/03/07 16:04:37;;;;;;;;;;;;;;;;;;4949512;28;19926;-88
2023/03/07 16:07:03;;;;;;;;;;;;;;;;;;4933495;28;19927;-87
2023/03/07 16:09:28;;;;;;;;;;;;;;;;;;4929214;28;20450;-86
2023/03/07 16:11:54;;;;;;;;;;;;;;;;;;4931607;28;19925;-85
2023/03/07 16:14:28;;;;;;;;;;;;;;;;;;4962335;28;19946;-87
2023/03/07 16:16:54;;;;;;;;;;;;;;;;;;4948079;28;19929;-86
2023/03/07 16:19:19;;;;;;;;;;;;;;;;;;4952197;28;20365;-86
2023/03/07 16:21:44;;;;;;;;;;;;;;;;;;4920432;28;19925;-87
2023/03/07 16:24:10;;;;;;;;;;;;;;;;;;4929611;28;19922;-87
2023/03/07 16:26:35;;;;;;;;;;;;;;;;;;4942364;28;19921;-87
2023/03/07 16:29:00;;;;;;;;;;;;;;;;;;4930493;28;19947;-86
2023/03/07 16:31:26;;;;;;;;;;;;;;;;;;4946354;28;19915;-87
2023/03/07 16:33:51;;;;;;;;;;;;;;;;;;4945773;28;19941;-87
2023/03/07 16:36:16;;;;;;;;;;;;;;;;;;4960359;28;19922;-88
2023/03/07 16:38:41;;;;;;;;;;;;;;;;;;4945210;28;19930;-88
2023/03/07 16:41:14;;;;;;;;;;;;;;;;;;4930642;28;20268;-89
2023/03/07 16:43:39;;;;;;;;;;;;;;;;;;4961723;28;19919;-88
2023/03/07 16:46:05;;;;;;;;;;;;;;;;;;4946376;28;19921;-88
2023/03/07 16:48:31;;;;;;;;;;;;;;;;;;4945155;28;20341;-87
2023/03/07 16:50:56;;;;;;;;;;;;;;;;;;4960219;28;20002;-88